Time;durP1;ratioP1;P1;durP2;ratioP2;P2;SDS_P1;SDS_P2;PMS_P1;PMS_P2;Temp;Humidity;BMP_temperature;BMP_pressure;BME280_temperature;BME280_humidity;BME280_pressure;Samples;Min_cycle;Max_cycle;Signal;HPM_P1;HPM_P2
2023/01/24 00:00:23;;;;;;;24.77;17.10;;;;;;;3.77;100.00;103991.97;5027202;28;20033;-67
2023/01/24 00:02:48;;;;;;;24.27;16.02;;;;;;;3.66;100.00;103982.75;5027328;28;20504;-69
2023/01/24 00:05:14;;;;;;;24.58;15.32;;;;;;;3.76;100.00;103977.13;5025984;28;20029;-68
2023/01/24 00:07:39;;;;;;;22.55;15.73;;;;;;;3.91;100.00;103978.66;5030329;28;20519;-68
2023/01/24 00:10:05;;;;;;;27.52;16.70;;;;;;;3.97;100.00;103978.94;5029198;28;20045;-67
2023/01/24 00:12:30;;;;;;;24.70;16.48;;;;;;;4.01;100.00;103979.97;5030213;28;20109;-70
2023/01/24 00:14:57;;;;;;;24.08;15.25;;;;;;;4.08;100.00;103975.91;5030358;28;20157;-68
2023/01/24 00:17:24;;;;;;;25.25;16.38;;;;;;;3.97;100.00;103978.06;5030782;28;20416;-69
2023/01/24 00:19:49;;;;;;;27.02;16.90;;;;;;;3.96;100.00;103965.81;5031085;28;20437;-67
2023/01/24 00:22:15;;;;;;;26.75;16.80;;;;;;;3.95;100.00;103979.69;5030442;28;20132;-69
2023/01/24 00:24:40;;;;;;;23.83;16.58;;;;;;;3.95;100.00;103977.09;5029191;28;20083;-69
2023/01/24 00:27:05;;;;;;;24.75;15.57;;;;;;;4.00;100.00;103978.19;5013388;28;20029;-65
2023/01/24 00:29:31;;;;;;;22.67;15.95;;;;;;;4.07;100.00;103974.13;5030771;28;20029;-65
2023/01/24 00:31:57;;;;;;;24.13;16.30;;;;;;;3.98;100.00;103978.13;5031235;28;20021;-69
2023/01/24 00:34:22;;;;;;;23.83;15.35;;;;;;;4.01;100.00;103982.56;5032035;28;20116;-68
2023/01/24 00:36:47;;;;;;;27.08;16.50;;;;;;;4.09;100.00;103977.69;5013947;28;20044;-67
2023/01/24 00:39:13;;;;;;;23.80;15.65;;;;;;;4.06;100.00;103981.03;5030203;28;20057;-67
2023/01/24 00:41:38;;;;;;;22.63;15.98;;;;;;;3.97;100.00;103973.72;5030241;28;20022;-70
2023/01/24 00:44:03;;;;;;;25.45;16.85;;;;;;;3.75;100.00;103977.97;5030127;28;20031;-69
2023/01/24 00:46:29;;;;;;;23.38;16.25;;;;;;;3.93;100.00;103977.00;5029492;28;20037;-67
2023/01/24 00:48:54;;;;;;;23.58;16.73;;;;;;;3.85;100.00;103970.56;5030242;28;20029;-69
2023/01/24 00:51:20;;;;;;;23.20;16.17;;;;;;;3.77;100.00;103963.25;5030139;28;20029;-69
2023/01/24 00:53:45;;;;;;;26.02;17.35;;;;;;;3.82;100.00;103973.03;5030142;28;20029;-63
2023/01/24 00:56:10;;;;;;;24.27;16.73;;;;;;;3.74;100.00;103959.63;5028676;28;20061;-67
2023/01/24 00:58:36;;;;;;;26.15;16.60;;;;;;;3.80;100.00;103965.16;5030010;28;20025;-69
2023/01/24 01:01:04;;;;;;;23.13;16.10;;;;;;;3.92;100.00;103963.06;5030155;28;20037;-70
2023/01/24 01:03:30;;;;;;;24.83;16.93;;;;;;;3.86;100.00;103959.31;5030093;28;20028;-64
2023/01/24 01:06:04;;;;;;;23.45;16.38;;;;;;;3.94;100.00;103960.53;5029702;28;20363;-70
2023/01/24 01:08:30;;;;;;;28.55;18.00;;;;;;;3.80;100.00;103959.94;5030415;28;20420;-69
2023/01/24 01:10:56;;;;;;;23.38;16.13;;;;;;;3.91;100.00;103963.00;5028385;28;20041;-67
2023/01/24 01:13:21;;;;;;;26.42;17.20;;;;;;;3.75;100.00;103962.31;5029200;28;20408;-68
2023/01/24 01:15:46;;;;;;;27.70;16.73;;;;;;;3.93;100.00;103956.13;5029016;28;20203;-69
2023/01/24 01:18:12;;;;;;;25.35;17.17;;;;;;;3.96;100.00;103956.28;5028540;28;20037;-66
2023/01/24 01:20:37;;;;;;;24.63;16.45;;;;;;;3.86;100.00;103946.25;5028597;28;20136;-69
2023/01/24 01:23:02;;;;;;;23.83;16.23;;;;;;;3.84;100.00;103951.41;5028506;28;20480;-68
2023/01/24 01:25:28;;;;;;;24.75;16.92;;;;;;;3.83;100.00;103952.25;5028867;28;20053;-70
2023/01/24 01:27:53;;;;;;;25.88;17.05;;;;;;;3.82;100.00;103953.03;5029135;28;20025;-64
2023/01/24 01:30:18;;;;;;;21.55;15.75;;;;;;;3.86;100.00;103951.47;5029808;28;20025;-69
2023/01/24 01:32:45;;;;;;;24.70;16.17;;;;;;;3.81;100.00;103953.88;5029796;28;20025;-67
2023/01/24 01:35:10;;;;;;;26.08;16.83;;;;;;;3.81;100.00;103953.88;5001804;28;20044;-69
2023/01/24 01:37:36;;;;;;;23.92;16.13;;;;;;;3.85;100.00;103957.53;5009529;28;20026;-68
2023/01/24 01:40:02;;;;;;;28.13;16.50;;;;;;;3.96;100.00;103952.75;4990417;28;20045;-69
2023/01/24 01:42:40;;;;;;;23.95;16.05;;;;;;;3.73;100.00;103953.53;5009126;28;20030;-64
2023/01/24 01:45:35;;;;;;;23.05;15.85;;;;;;;3.86;100.00;103949.78;5009034;28;20473;-68
2023/01/24 01:48:05;;;;;;;23.48;16.05;;;;;;;3.76;100.00;103948.44;4991392;28;20538;-69
2023/01/24 01:50:33;;;;;;;24.17;16.17;;;;;;;3.82;100.00;103947.81;5009262;28;20022;-66
2023/01/24 01:52:58;;;;;;;31.42;17.27;;;;;;;3.83;100.00;103948.72;5008764;28;20030;-67
2023/01/24 01:55:26;;;;;;;22.60;15.50;;;;;;;3.74;100.00;103952.72;5008332;28;20030;-69
2023/01/24 01:57:52;;;;;;;22.58;15.35;;;;;;;3.62;100.00;103946.94;5008666;28;20384;-68
2023/01/24 02:00:24;;;;;;;22.17;15.63;;;;;;;3.56;100.00;103950.16;5009142;28;20108;-68
2023/01/24 02:05:47;;;;;;;21.58;14.48;;;;;;;3.70;100.00;103942.06;4994643;28;20036;-68
2023/01/24 02:08:16;;;;;;;23.30;15.60;;;;;;;3.69;100.00;103943.78;4991131;28;20034;-63
2023/01/24 02:13:25;;;;;;;20.67;15.02;;;;;;;3.75;100.00;103946.66;5009816;28;20125;-65
2023/01/24 02:16:02;;;;;;;24.13;15.57;;;;;;;3.73;100.00;103940.47;5009929;28;20436;-65
2023/01/24 02:21:11;;;;;;;22.25;14.38;;;;;;;3.75;100.00;103935.34;3876015;23;20056;-66
2023/01/24 02:23:55;;;;;;;22.35;15.02;;;;;;;3.69;100.00;103941.16;5057412;28;20524;-63
2023/01/24 02:26:22;;;;;;;26.80;16.20;;;;;;;3.67;100.00;103940.19;5069303;28;20032;-68
2023/01/24 02:28:54;;;;;;;24.10;15.57;;;;;;;3.63;100.00;103940.88;5068222;28;20021;-68
2023/01/24 02:31:19;;;;;;;23.17;15.68;;;;;;;3.70;100.00;103947.28;5050642;28;20138;-69
2023/01/24 02:33:44;;;;;;;21.95;14.85;;;;;;;3.68;100.00;103944.63;5048998;28;20029;-66
2023/01/24 02:36:15;;;;;;;21.17;15.00;;;;;;;3.72;100.00;103943.03;5047700;28;20060;-69
2023/01/24 02:38:43;;;;;;;23.42;16.52;;;;;;;3.69;100.00;103937.66;5029387;28;20064;-68
2023/01/24 02:41:09;;;;;;;26.33;16.23;;;;;;;3.47;100.00;103940.22;5049339;28;20031;-68
2023/01/24 02:43:37;;;;;;;23.55;15.75;;;;;;;3.64;100.00;103940.06;5049013;28;20028;-71
2023/01/24 02:46:02;;;;;;;23.63;16.23;;;;;;;3.63;100.00;103940.88;5048702;28;20112;-70
2023/01/24 02:48:27;;;;;;;22.20;15.23;;;;;;;3.68;100.00;103934.19;5048676;28;20117;-68
2023/01/24 02:53:39;;;;;;;22.77;15.43;;;;;;;3.70;100.00;103935.13;5048361;28;20094;-68
2023/01/24 02:58:51;;;;;;;24.05;16.05;;;;;;;3.75;100.00;103930.13;5048558;28;20151;-69
2023/01/24 03:01:18;;;;;;;25.48;16.55;;;;;;;3.60;100.00;103935.53;5048711;28;20107;-70
2023/01/24 03:03:44;;;;;;;25.38;17.92;;;;;;;3.60;100.00;103931.22;5048296;28;20025;-67
2023/01/24 03:06:10;;;;;;;23.70;16.50;;;;;;;3.62;100.00;103933.91;5047401;28;20474;-69
2023/01/24 03:08:37;;;;;;;29.20;17.42;;;;;;;3.56;100.00;103929.31;5048717;28;20025;-68
2023/01/24 03:11:03;;;;;;;27.05;17.27;;;;;;;3.66;100.00;103930.59;5027296;28;20037;-70
2023/01/24 03:35:21;;;;;;;25.83;17.58;;;;;;;3.56;100.00;103917.97;5068247;28;20414;-71
2023/01/24 03:40:31;;;;;;;24.98;17.60;;;;;;;3.61;100.00;103924.31;5067556;28;20043;-68
2023/01/24 03:42:56;;;;;;;28.98;18.13;;;;;;;3.66;100.00;103921.06;5068085;28;20016;-69
2023/01/24 03:45:23;;;;;;;29.50;18.25;;;;;;;3.61;100.00;103925.16;5067776;28;20047;-68
2023/01/24 03:47:56;;;;;;;27.48;18.05;;;;;;;3.57;100.00;103920.66;5057738;28;20020;-68
2023/01/24 03:53:14;;;;;;;25.52;17.83;;;;;;;3.52;100.00;103924.75;5067470;28;20093;-70
2023/01/24 03:55:39;;;;;;;29.13;17.75;;;;;;;3.43;100.00;103934.78;5067652;28;20036;-69
2023/01/24 03:58:06;;;;;;;27.35;17.75;;;;;;;3.58;100.00;103927.63;5051042;28;20060;-70
2023/01/24 04:00:32;;;;;;;26.63;17.38;;;;;;;3.54;100.00;103928.31;5069162;28;20116;-68
2023/01/24 04:02:58;;;;;;;26.90;18.15;;;;;;;3.57;100.00;103931.06;5069389;28;20020;-66
2023/01/24 04:05:24;;;;;;;30.75;18.77;;;;;;;3.46;100.00;103927.97;5069088;28;20079;-68
2023/01/24 04:07:49;;;;;;;27.40;18.42;;;;;;;3.33;100.00;103928.22;5067321;28;20032;-68
2023/01/24 04:10:15;;;;;;;27.85;18.08;;;;;;;3.32;100.00;103932.56;5068458;28;20013;-65
2023/01/24 04:12:41;;;;;;;26.75;17.90;;;;;;;3.35;100.00;103924.91;5067962;28;20035;-68
2023/01/24 04:15:11;;;;;;;26.65;17.02;;;;;;;3.32;100.00;103916.94;5069190;28;20111;-69
2023/01/24 04:17:36;;;;;;;27.67;17.80;;;;;;;3.40;100.00;103927.69;5050477;28;20032;-69
2023/01/24 04:20:02;;;;;;;25.08;16.80;;;;;;;3.43;100.00;103922.63;5068670;28;20021;-64
2023/01/24 04:22:27;;;;;;;26.92;17.33;;;;;;;3.45;100.00;103926.19;5067360;28;20135;-69
2023/01/24 04:24:53;;;;;;;24.35;17.55;;;;;;;3.54;100.00;103921.41;5047677;28;20025;-70
2023/01/24 04:27:18;;;;;;;24.77;17.70;;;;;;;3.49;100.00;103924.63;5068107;28;20055;-68
2023/01/24 04:29:43;;;;;;;28.85;18.50;;;;;;;3.46;100.00;103921.88;5064065;28;20056;-70
2023/01/24 04:32:10;;;;;;;28.70;17.58;;;;;;;3.46;100.00;103925.34;5039839;28;20032;-70
2023/01/24 04:34:35;;;;;;;25.65;17.20;;;;;;;3.45;100.00;103917.47;5054855;28;20404;-64
2023/01/24 04:37:00;;;;;;;29.45;17.42;;;;;;;3.32;100.00;103923.84;5047545;28;20029;-69
2023/01/24 04:39:26;;;;;;;27.95;17.80;;;;;;;3.22;100.00;103926.00;5046956;28;20443;-67
2023/01/24 04:41:51;;;;;;;26.63;17.88;;;;;;;3.29;100.00;103930.69;5030435;28;20079;-64
2023/01/24 04:44:16;;;;;;;25.58;17.02;;;;;;;3.37;100.00;103922.34;5048843;28;20112;-65
2023/01/24 04:46:42;;;;;;;27.48;17.80;;;;;;;3.21;100.00;103931.16;5048206;28;20317;-68
2023/01/24 04:49:07;;;;;;;26.45;17.42;;;;;;;3.35;100.00;103935.31;5048358;28;20056;-68
2023/01/24 04:51:33;;;;;;;26.17;16.92;;;;;;;3.42;100.00;103931.25;5047298;28;20074;-68
2023/01/24 04:53:58;;;;;;;25.38;16.58;;;;;;;3.44;100.00;103940.06;5050841;28;20055;-64
2023/01/24 04:56:23;;;;;;;24.48;16.73;;;;;;;3.45;100.00;103936.63;5017249;28;20025;-68
2023/01/24 04:58:49;;;;;;;25.27;16.52;;;;;;;3.37;100.00;103938.00;5051488;28;20032;-68
2023/01/24 05:01:14;;;;;;;25.05;16.40;;;;;;;3.41;100.00;103945.13;5051770;28;20061;-70
2023/01/24 05:03:39;;;;;;;25.23;16.65;;;;;;;3.39;100.00;103950.28;5051680;28;20059;-68
2023/01/24 05:06:05;;;;;;;26.40;16.40;;;;;;;3.44;100.00;103950.50;5033672;28;20017;-69
2023/01/24 05:08:30;;;;;;;24.95;16.20;;;;;;;3.40;100.00;103949.44;5051945;28;20036;-69
2023/01/24 05:11:00;;;;;;;25.45;16.63;;;;;;;3.38;100.00;103948.50;5051895;28;20379;-71
2023/01/24 05:13:25;;;;;;;26.65;17.02;;;;;;;3.35;100.00;103944.84;5051717;28;20029;-68
2023/01/24 05:15:51;;;;;;;25.27;16.08;;;;;;;3.23;100.00;103953.88;5057435;28;20059;-68
2023/01/24 05:18:17;;;;;;;23.48;15.95;;;;;;;3.31;100.00;103956.81;5071004;28;20035;-70
2023/01/24 05:20:43;;;;;;;25.63;16.60;;;;;;;3.39;100.00;103947.66;5069783;28;20092;-69
2023/01/24 05:23:08;;;;;;;26.17;16.15;;;;;;;3.26;100.00;103946.22;5071406;28;20037;-68
2023/01/24 05:25:34;;;;;;;24.88;16.05;;;;;;;3.16;100.00;103954.38;5070970;28;20018;-68
2023/01/24 05:27:59;;;;;;;26.40;17.13;;;;;;;3.13;100.00;103949.94;5065699;28;20512;-69
2023/01/24 05:30:24;;;;;;;22.50;15.25;;;;;;;3.02;100.00;103948.53;5070557;28;20351;-68
2023/01/24 05:32:50;;;;;;;22.67;15.77;;;;;;;3.16;100.00;103957.91;5058123;28;20029;-67
2023/01/24 05:35:15;;;;;;;25.48;16.35;;;;;;;3.08;100.00;103955.75;5056815;28;20029;-67
2023/01/24 05:37:40;;;;;;;25.77;16.67;;;;;;;3.09;100.00;103960.13;5064406;28;20433;-70
2023/01/24 05:40:07;;;;;;;23.05;15.70;;;;;;;3.24;100.00;103957.34;5057186;28;20025;-71
2023/01/24 05:42:32;;;;;;;23.38;15.63;;;;;;;3.35;100.00;103963.09;5064465;28;20025;-70
2023/01/24 05:44:58;;;;;;;22.73;15.18;;;;;;;3.38;100.00;103965.84;5057100;28;20036;-70
2023/01/24 05:47:23;;;;;;;24.05;15.82;;;;;;;3.35;100.00;103969.22;5066353;28;20585;-65
2023/01/24 05:49:49;;;;;;;26.80;15.50;;;;;;;3.02;100.00;103970.28;5065976;28;20024;-70
2023/01/24 05:52:20;;;;;;;26.08;16.42;;;;;;;3.12;100.00;103963.78;5055785;28;20035;-67
2023/01/24 05:54:49;;;;;;;28.85;16.95;;;;;;;3.27;100.00;103975.75;5033925;28;20021;-63
2023/01/24 05:57:15;;;;;;;25.85;15.82;;;;;;;3.27;100.00;103975.75;5059324;28;20028;-70
2023/01/24 05:59:40;;;;;;;26.15;16.13;;;;;;;3.43;100.00;103973.88;5071275;28;20451;-69
2023/01/24 06:02:05;;;;;;;24.67;16.15;;;;;;;3.37;100.00;103974.50;5052312;28;20025;-72
2023/01/24 06:04:31;;;;;;;24.52;15.80;;;;;;;3.33;100.00;103963.00;5069102;28;20100;-67
2023/01/24 06:06:56;;;;;;;24.15;16.30;;;;;;;3.45;100.00;103960.09;5069939;28;20251;-68
2023/01/24 06:09:21;;;;;;;24.33;15.73;;;;;;;3.39;100.00;103962.41;5070726;28;20032;-65
2023/01/24 06:11:47;;;;;;;26.88;16.65;;;;;;;3.37;100.00;103969.28;5071890;28;20035;-68
2023/01/24 06:14:12;;;;;;;25.33;15.85;;;;;;;3.24;100.00;103968.69;5071229;28;20462;-70
2023/01/24 06:16:39;;;;;;;24.50;15.30;;;;;;;3.33;100.00;103964.72;5070937;28;20024;-68
2023/01/24 06:19:04;;;;;;;25.92;15.63;;;;;;;3.37;100.00;103972.75;5070474;28;20021;-68
2023/01/24 06:21:43;;;;;;;23.55;15.93;;;;;;;3.44;100.00;103976.56;5069274;28;20044;-67
2023/01/24 06:24:17;;;;;;;25.15;15.40;;;;;;;3.27;100.00;103979.25;5070986;28;20024;-69
2023/01/24 06:26:42;;;;;;;25.42;15.82;;;;;;;3.09;100.00;103973.16;5051139;28;20028;-68
2023/01/24 06:29:12;;;;;;;24.35;15.80;;;;;;;3.13;100.00;103977.72;5070510;28;20111;-71
2023/01/24 06:31:37;;;;;;;25.33;15.82;;;;;;;3.03;100.00;103977.25;5068900;28;20587;-69
2023/01/24 06:34:32;;;;;;;22.85;14.75;;;;;;;3.19;100.00;103983.19;5070086;28;20036;-61
2023/01/24 06:37:17;;;;;;;23.55;14.98;;;;;;;3.00;100.00;103984.94;5069325;28;20041;-65
2023/01/24 06:39:49;;;;;;;25.00;15.95;;;;;;;3.02;100.00;103992.81;5051607;28;20039;-69
2023/01/24 06:42:17;;;;;;;23.77;14.55;;;;;;;3.14;100.00;103987.31;5069966;28;20155;-69
2023/01/24 06:44:42;;;;;;;23.95;15.25;;;;;;;2.95;100.00;103996.81;5069578;28;20027;-69
2023/01/24 06:47:10;;;;;;;25.75;15.65;;;;;;;3.07;100.00;103996.53;5070959;28;20028;-69
2023/01/24 06:49:35;;;;;;;27.23;17.33;;;;;;;3.09;100.00;103999.22;5069076;28;20024;-70
2023/01/24 06:52:01;;;;;;;24.48;15.75;;;;;;;3.10;100.00;103991.47;5068923;28;20092;-63
2023/01/24 06:54:26;;;;;;;24.90;15.43;;;;;;;2.97;100.00;103995.19;5068869;28;20028;-70
2023/01/24 06:56:51;;;;;;;23.85;15.32;;;;;;;2.97;100.00;103992.59;5057730;28;20119;-64
2023/01/24 06:59:17;;;;;;;25.35;15.88;;;;;;;3.10;100.00;103982.78;5068438;28;20064;-68
2023/01/24 07:01:42;;;;;;;25.65;15.80;;;;;;;2.95;100.00;103995.94;5066000;28;20031;-62
2023/01/24 07:04:07;;;;;;;28.13;16.95;;;;;;;3.09;100.00;103994.00;5068436;28;20103;-67
2023/01/24 07:06:33;;;;;;;26.38;16.20;;;;;;;3.01;100.00;103991.91;5066245;28;20032;-68
2023/01/24 07:08:58;;;;;;;26.33;17.33;;;;;;;3.07;100.00;103987.84;5050648;28;20021;-69
2023/01/24 07:11:24;;;;;;;25.10;16.83;;;;;;;2.89;100.00;103994.81;5067788;28;20031;-66
2023/01/24 07:13:50;;;;;;;29.60;16.88;;;;;;;2.87;100.00;103998.16;5068511;28;20105;-68
2023/01/24 07:16:15;;;;;;;27.05;16.42;;;;;;;2.93;100.00;104001.09;5068026;28;20390;-70
2023/01/24 07:18:41;;;;;;;25.20;16.85;;;;;;;2.86;100.00;103999.00;5067920;28;20437;-66
2023/01/24 07:21:07;;;;;;;26.60;16.80;;;;;;;2.98;100.00;104001.31;5054990;28;20048;-67
2023/01/24 07:23:34;;;;;;;33.55;17.20;;;;;;;2.99;100.00;104005.69;5030200;28;20071;-68
2023/01/24 07:26:00;;;;;;;25.25;16.17;;;;;;;2.99;100.00;104001.41;5047251;28;20063;-69
2023/01/24 07:28:25;;;;;;;31.63;17.45;;;;;;;2.90;100.00;104004.44;5047785;28;20029;-66
2023/01/24 07:30:54;;;;;;;27.45;17.70;;;;;;;3.02;100.00;104008.47;5048397;28;20029;-69
2023/01/24 07:33:20;;;;;;;;;;;;;;;2.92;100.00;104006.22;5031302;28;20112;-67
2023/01/24 07:35:45;;;;;;;27.23;15.75;;;;;;;2.86;100.00;104010.28;5046975;28;20110;-62
2023/01/24 07:38:11;;;;;;;27.55;17.17;;;;;;;2.86;100.00;104019.84;5047653;28;20041;-71
2023/01/24 07:40:37;;;;;;;27.48;17.08;;;;;;;2.86;100.00;104017.22;5047696;28;20021;-69
2023/01/24 07:43:03;;;;;;;27.20;17.15;;;;;;;2.90;100.00;104013.97;5047930;28;20025;-68
2023/01/24 07:45:30;;;;;;;31.38;18.08;;;;;;;2.71;100.00;104023.44;5052325;28;20371;-69
2023/01/24 07:47:57;;;;;;;31.63;18.92;;;;;;;2.83;100.00;104023.16;5050381;28;20111;-66
2023/01/24 07:50:23;;;;;;;27.83;18.02;;;;;;;2.72;100.00;104021.72;5065765;28;20471;-67
2023/01/24 07:52:54;;;;;;;30.90;17.75;;;;;;;2.53;100.00;104024.28;5068093;28;20109;-69
2023/01/24 07:55:21;;;;;;;29.00;18.50;;;;;;;2.55;100.00;104026.06;5068201;28;20024;-67
2023/01/24 07:57:46;;;;;;;28.42;18.33;;;;;;;2.65;100.00;104031.84;5068083;28;20036;-66
2023/01/24 08:00:13;;;;;;;27.25;18.15;;;;;;;2.88;100.00;104031.22;5063563;28;20120;-69
2023/01/24 08:02:39;;;;;;;30.25;18.67;;;;;;;3.03;100.00;104038.91;5047608;28;20103;-66
2023/01/24 08:05:04;;;;;;;29.55;19.60;;;;;;;3.01;100.00;104028.41;5048203;28;20471;-67
2023/01/24 08:07:30;;;;;;;30.38;19.13;;;;;;;2.96;100.00;104042.00;5050192;28;20083;-64
2023/01/24 08:09:55;;;;;;;29.77;19.35;;;;;;;3.01;100.00;104044.03;5050441;28;20123;-67
2023/01/24 08:12:21;;;;;;;33.17;19.25;;;;;;;2.90;100.00;104045.22;5051155;28;20029;-68
2023/01/24 08:14:46;;;;;;;29.85;18.70;;;;;;;2.85;100.00;104041.47;5057472;28;20530;-71
2023/01/24 08:17:12;;;;;;;36.15;20.60;;;;;;;2.58;100.00;104040.16;5058038;28;20037;-66
2023/01/24 08:19:39;;;;;;;32.17;20.20;;;;;;;2.66;100.00;104045.75;5062152;28;20115;-68
2023/01/24 08:22:05;;;;;;;31.58;20.33;;;;;;;2.69;100.00;104040.72;5068174;28;20048;-67
2023/01/24 08:24:30;;;;;;;34.92;20.58;;;;;;;2.64;100.00;104043.06;5066551;28;20383;-67
2023/01/24 08:26:55;;;;;;;34.88;20.73;;;;;;;2.83;100.00;104040.53;5039205;28;20056;-68
2023/01/24 08:29:21;;;;;;;31.90;19.20;;;;;;;2.89;100.00;104051.25;5060472;28;20013;-65
2023/01/24 08:31:48;;;;;;;32.25;20.20;;;;;;;2.98;100.00;104046.47;5052894;28;20025;-68
2023/01/24 08:34:13;;;;;;;36.10;20.50;;;;;;;3.00;100.00;104057.88;5033679;28;20029;-68
2023/01/24 08:36:39;;;;;;;34.25;20.63;;;;;;;2.98;100.00;104063.84;5067654;28;20032;-69
2023/01/24 08:39:04;;;;;;;29.08;19.35;;;;;;;2.70;100.00;104065.94;5072207;28;20025;-69
2023/01/24 08:41:30;;;;;;;32.50;20.08;;;;;;;2.94;100.00;104068.00;5071515;28;20036;-63
2023/01/24 08:43:55;;;;;;;34.47;19.83;;;;;;;3.05;100.00;104059.81;5072562;28;20021;-67
2023/01/24 08:46:21;;;;;;;34.55;20.20;;;;;;;3.10;100.00;104064.44;5072872;28;20082;-68
2023/01/24 08:48:46;;;;;;;31.08;19.15;;;;;;;3.06;100.00;104064.19;5072139;28;20466;-66
2023/01/24 08:51:11;;;;;;;31.33;19.98;;;;;;;2.89;100.00;104065.16;5071883;28;20067;-69
2023/01/24 08:53:37;;;;;;;33.55;20.67;;;;;;;2.85;100.00;104072.72;5059621;28;20032;-68
2023/01/24 08:56:03;;;;;;;34.10;20.90;;;;;;;2.74;100.00;104070.47;5061370;28;20040;-69
2023/01/24 08:58:28;;;;;;;33.03;20.20;;;;;;;2.83;100.00;104070.03;5060932;28;20075;-69
2023/01/24 09:00:54;;;;;;;30.88;19.23;;;;;;;2.72;100.00;104068.59;5059425;28;20470;-68
2023/01/24 09:03:19;;;;;;;34.50;20.08;;;;;;;2.45;100.00;104071.56;5062061;28;20028;-68
2023/01/24 09:05:45;;;;;;;35.30;20.13;;;;;;;2.53;100.00;104076.34;5059057;28;20526;-65
2023/01/24 09:08:11;;;;;;;31.73;20.33;;;;;;;2.65;100.00;104073.50;5061550;28;20037;-70
2023/01/24 09:10:37;;;;;;;30.50;19.52;;;;;;;2.81;100.00;104078.59;5062894;28;20021;-64
2023/01/24 09:13:03;;;;;;;30.98;18.80;;;;;;;2.86;100.00;104074.53;5060701;28;20035;-68
2023/01/24 09:15:29;;;;;;;32.17;19.42;;;;;;;2.95;100.00;104077.59;5060137;28;20029;-68
2023/01/24 09:17:55;;;;;;;35.00;19.95;;;;;;;2.85;100.00;104084.06;5062507;28;20028;-69
2023/01/24 09:20:20;;;;;;;30.65;19.20;;;;;;;2.85;100.00;104086.66;5062764;28;20337;-69
2023/01/24 09:22:46;;;;;;;32.28;19.75;;;;;;;3.05;100.00;104091.09;5057157;28;20154;-63
2023/01/24 09:25:12;;;;;;;32.30;19.45;;;;;;;3.13;100.00;104085.44;5060836;28;20029;-68
2023/01/24 09:27:37;;;;;;;31.75;19.73;;;;;;;3.25;100.00;104085.16;5043862;28;20032;-69
2023/01/24 09:30:04;;;;;;;35.38;20.77;;;;;;;3.27;100.00;104096.56;5067224;28;20028;-67
2023/01/24 09:32:30;;;;;;;31.25;19.08;;;;;;;3.14;100.00;104088.94;5065205;28;20154;-63
2023/01/24 09:34:55;;;;;;;31.40;19.63;;;;;;;3.26;100.00;104092.16;5051054;28;20103;-69
2023/01/24 09:37:21;;;;;;;31.95;19.30;;;;;;;3.31;100.00;104092.38;5052828;28;20360;-67
2023/01/24 09:39:47;;;;;;;30.15;18.63;;;;;;;3.27;100.00;104098.25;5070735;28;20028;-63
2023/01/24 09:42:31;;;;;;;33.08;18.52;;;;;;;3.24;100.00;104096.41;5071500;28;20031;-68
2023/01/24 09:45:21;;;;;;;32.85;18.90;;;;;;;3.03;100.00;104101.44;5053356;28;20079;-69
2023/01/24 09:47:59;;;;;;;32.47;18.25;;;;;;;3.18;100.00;104101.31;5066335;28;20024;-69
2023/01/24 09:50:46;;;;;;;32.50;19.27;;;;;;;3.10;100.00;104108.72;5048545;28;20032;-70
2023/01/24 09:53:30;;;;;;;32.60;19.58;;;;;;;3.23;100.00;104097.22;5050242;28;20117;-69
2023/01/24 09:55:58;;;;;;;30.85;19.52;;;;;;;3.18;100.00;104108.22;5050862;28;20025;-68
2023/01/24 09:58:33;;;;;;;32.63;19.08;;;;;;;3.14;100.00;104109.78;5068832;28;20066;-65
2023/01/24 10:01:00;;;;;;;34.90;19.33;;;;;;;3.20;100.00;104114.41;5048090;28;20029;-70
2023/01/24 10:03:26;;;;;;;31.48;19.05;;;;;;;3.40;100.00;104116.28;5049398;28;20033;-65
2023/01/24 10:05:54;;;;;;;32.95;20.50;;;;;;;3.49;100.00;104105.41;5068162;28;20021;-63
2023/01/24 10:08:44;;;;;;;30.27;18.42;;;;;;;3.38;100.00;104114.44;5049027;28;20078;-67
2023/01/24 10:11:18;;;;;;;33.00;20.00;;;;;;;3.35;100.00;104117.78;5048492;28;20120;-61
2023/01/24 10:13:53;;;;;;;27.95;17.80;;;;;;;3.30;100.00;104114.06;5054703;28;20027;-67
2023/01/24 10:16:43;;;;;;;27.08;17.77;;;;;;;3.34;100.00;104109.91;5059399;28;20094;-66
2023/01/24 10:19:40;;;;;;;30.13;18.40;;;;;;;3.30;100.00;104106.22;5059643;28;20395;-67
2023/01/24 10:22:20;;;;;;;29.75;18.08;;;;;;;3.30;100.00;104111.44;5049797;28;20072;-68
2023/01/24 10:24:55;;;;;;;29.65;18.20;;;;;;;3.19;100.00;104110.03;5067998;28;20506;-68
2023/01/24 10:27:35;;;;;;;30.00;18.65;;;;;;;3.31;100.00;104108.00;5052024;28;20033;-66
2023/01/24 10:30:14;;;;;;;29.20;18.02;;;;;;;3.31;100.00;104105.41;5068358;28;20394;-68
2023/01/24 10:32:43;;;;;;;26.95;17.35;;;;;;;3.35;100.00;104109.06;5049835;28;20021;-65
2023/01/24 10:35:38;;;;;;;29.80;18.50;;;;;;;3.41;100.00;104105.03;5030095;28;20100;-68
2023/01/24 10:38:05;;;;;;;27.65;17.48;;;;;;;3.52;100.00;104099.44;4998460;28;20051;-68
2023/01/24 10:40:31;;;;;;;29.98;18.77;;;;;;;3.46;100.00;104104.38;5034889;28;20429;-67
2023/01/24 10:42:56;;;;;;;27.58;17.80;;;;;;;3.50;100.00;104099.41;5051890;28;20029;-68
2023/01/24 10:45:24;;;;;;;27.83;17.52;;;;;;;3.42;100.00;104100.72;5068467;28;20028;-66
2023/01/24 10:47:59;;;;;;;28.70;17.90;;;;;;;3.27;100.00;104095.66;5069717;28;20025;-70
2023/01/24 10:50:34;;;;;;;28.85;17.27;;;;;;;3.31;100.00;104099.31;5067374;28;20409;-67
2023/01/24 10:53:25;;;;;;;29.23;17.35;;;;;;;3.50;100.00;104094.19;5057605;28;20071;-66
2023/01/24 10:55:58;;;;;;;27.30;16.60;;;;;;;3.40;100.00;104092.81;5049944;28;20033;-69
2023/01/24 10:58:25;;;;;;;30.85;18.02;;;;;;;3.42;100.00;104087.69;5053225;28;20029;-70
2023/01/24 11:00:58;;;;;;;28.15;17.63;;;;;;;3.47;100.00;104090.53;5054795;28;20486;-66
2023/01/24 11:03:29;;;;;;;28.63;17.50;;;;;;;3.13;100.00;104087.16;5057248;28;20027;-69
2023/01/24 11:05:57;;;;;;;28.33;17.77;;;;;;;3.19;100.00;104079.63;5055375;28;20475;-68
2023/01/24 11:08:32;;;;;;;31.55;17.73;;;;;;;3.36;100.00;104079.56;5037882;28;20379;-64
2023/01/24 11:11:00;;;;;;;28.85;18.83;;;;;;;3.32;100.00;104082.84;5058271;28;20082;-68
2023/01/24 11:13:33;;;;;;;32.88;18.50;;;;;;;3.39;100.00;104079.72;5060165;28;20108;-68
2023/01/24 11:16:17;;;;;;;26.33;17.02;;;;;;;3.44;100.00;104074.72;5057583;28;20071;-61
2023/01/24 11:19:04;;;;;;;30.55;18.67;;;;;;;3.60;100.00;104065.91;5058599;28;20112;-66
2023/01/24 11:21:30;;;;;;;30.30;18.20;;;;;;;3.28;100.00;104068.75;5057043;28;20084;-66
2023/01/24 11:24:19;;;;;;;26.60;16.95;;;;;;;3.38;100.00;104071.03;5036738;28;20032;-68
2023/01/24 11:27:01;;;;;;;31.20;17.70;;;;;;;3.64;100.00;104062.63;5058722;28;20025;-68
2023/01/24 11:29:26;;;;;;;27.88;17.05;;;;;;;3.63;100.00;104071.28;5059137;28;20025;-66
2023/01/24 11:32:18;;;;;;;28.00;17.33;;;;;;;3.65;100.00;104069.66;5057378;28;20028;-67
2023/01/24 11:35:27;;;;;;;26.52;16.42;;;;;;;3.37;100.00;104064.00;5037999;28;20021;-65
2023/01/24 11:38:23;;;;;;;29.65;17.63;;;;;;;3.23;100.00;104065.03;4973005;28;20035;-69
2023/01/24 11:41:20;;;;;;;29.63;18.15;;;;;;;3.35;100.00;104062.16;5059906;28;20199;-62
2023/01/24 11:44:04;;;;;;;29.90;17.85;;;;;;;3.32;100.00;104056.78;5057777;28;20036;-67
2023/01/24 11:46:50;;;;;;;27.02;17.25;;;;;;;3.32;100.00;104056.78;5054651;28;20112;-69
2023/01/24 11:49:37;;;;;;;28.75;17.88;;;;;;;3.27;100.00;104056.56;5046836;28;20040;-69
2023/01/24 11:52:14;;;;;;;30.95;19.30;;;;;;;3.37;100.00;104044.88;5039038;28;20333;-69
2023/01/24 11:55:04;;;;;;;30.02;18.35;;;;;;;3.37;100.00;104037.94;5057181;28;20472;-68
2023/01/24 11:57:41;;;;;;;32.42;17.48;;;;;;;3.21;100.00;104046.72;5058272;28;20137;-66